createdAt,value
2022-10-14T00:00:28.585Z,68.64
2022-10-14T00:02:58.791Z,68.78
2022-10-14T00:05:29.799Z,68.78
2022-10-14T00:08:01.298Z,69.03
2022-10-14T00:10:32.165Z,70.02
2022-10-14T00:13:04.150Z,69.63
2022-10-14T00:15:40.059Z,69.66
2022-10-14T00:18:11.128Z,70.36
2022-10-14T00:20:41.371Z,69.61
2022-10-14T00:23:12.364Z,69.61
2022-10-14T00:25:42.500Z,69.74
2022-10-14T00:28:12.744Z,69.69
2022-10-14T00:30:43.246Z,69.73
2022-10-14T00:33:13.454Z,69.40
2022-10-14T00:35:44.179Z,69.59
2022-10-14T00:38:14.694Z,69.54
2022-10-14T00:40:45.141Z,69.69
2022-10-14T00:43:15.587Z,69.95
2022-10-14T00:45:46.500Z,70.12
2022-10-14T00:48:19.189Z,69.82
2022-10-14T00:50:52.861Z,69.59
2022-10-14T00:53:27.569Z,69.35
2022-10-14T00:55:57.780Z,69.57
2022-10-14T00:58:28.306Z,69.28
2022-10-14T01:00:58.580Z,69.42
2022-10-14T01:03:29.432Z,69.61
2022-10-14T01:06:06.507Z,70.25
2022-10-14T01:08:39.787Z,70.25
2022-10-14T01:11:13.349Z,69.93
2022-10-14T01:13:52.720Z,69.93
2022-10-14T01:16:42.829Z,70.08
2022-10-14T01:19:28.247Z,70.39
2022-10-14T01:22:07.547Z,69.59
2022-10-14T01:25:05.155Z,69.59
2022-10-14T01:27:44.124Z,69.51
2022-10-14T01:30:34.203Z,69.37
2022-10-14T01:33:13.912Z,69.50
2022-10-14T01:36:01.403Z,69.28
2022-10-14T01:38:43.616Z,69.44
2022-10-14T01:41:22.470Z,68.62
2022-10-14T01:43:55.653Z,68.69
2022-10-14T01:46:27.675Z,67.83
2022-10-14T01:49:07.232Z,68.35
2022-10-14T01:51:43.045Z,68.60
2022-10-14T01:54:21.677Z,68.29
2022-10-14T01:56:54.517Z,68.11
2022-10-14T01:59:26.413Z,68.11
2022-10-14T02:01:56.590Z,67.48
2022-10-14T02:04:26.883Z,67.79
2022-10-14T02:07:11.910Z,67.79
2022-10-14T02:10:10.105Z,68.40
2022-10-14T02:12:45.796Z,67.98
2022-10-14T02:15:31.638Z,68.25
2022-10-14T02:18:20.085Z,69.06
2022-10-14T02:21:13.377Z,69.42
2022-10-14T02:23:46.822Z,69.49
2022-10-14T02:26:25.502Z,69.90
2022-10-14T02:28:58.370Z,69.90
2022-10-14T02:31:29.820Z,69.83
2022-10-14T02:34:02.984Z,69.83
2022-10-14T02:36:54.389Z,70.16
2022-10-14T02:39:27.955Z,70.27
2022-10-14T02:42:19.284Z,70.62
2022-10-14T02:44:54.559Z,70.60
2022-10-14T02:47:25.801Z,70.60
2022-10-14T02:49:57.056Z,72.06
2022-10-14T02:52:27.297Z,71.87
2022-10-14T02:54:57.742Z,71.87
2022-10-14T02:57:28.020Z,72.33
2022-10-14T02:59:58.428Z,70.88
2022-10-14T03:02:28.862Z,70.88
2022-10-14T03:04:59.063Z,70.70
2022-10-14T03:07:29.330Z,70.70
2022-10-14T03:09:59.544Z,70.25
2022-10-14T03:12:50.460Z,69.85
2022-10-14T03:15:20.797Z,70.27
2022-10-14T03:17:51.733Z,70.27
2022-10-14T03:20:23.049Z,70.08
2022-10-14T03:22:53.248Z,69.10
2022-10-14T03:25:23.476Z,69.60
2022-10-14T03:27:54.190Z,69.53
2022-10-14T03:30:24.356Z,69.31
2022-10-14T03:32:58.715Z,69.50
2022-10-14T03:35:32.870Z,69.13
2022-10-14T03:38:06.274Z,69.90
2022-10-14T03:40:37.544Z,69.90
2022-10-14T03:43:11.260Z,69.15
2022-10-14T03:45:45.736Z,68.06
2022-10-14T03:48:16.487Z,67.94
2022-10-14T03:50:48.071Z,68.53
2022-10-14T03:53:21.624Z,67.74
2022-10-14T03:55:52.599Z,67.83
2022-10-14T03:58:24.482Z,66.58
2022-10-14T04:00:54.874Z,66.68
2022-10-14T04:03:25.778Z,66.62
2022-10-14T04:05:56.306Z,66.76
2022-10-14T04:08:28.316Z,65.74
2022-10-14T04:10:58.809Z,66.18
2022-10-14T04:13:56.740Z,66.58
2022-10-14T04:16:38.670Z,66.58
2022-10-14T04:19:14.191Z,65.37
2022-10-14T04:21:48.613Z,65.37
2022-10-14T04:24:19.557Z,65.12
2022-10-14T04:26:52.615Z,65.12
2022-10-14T04:29:23.306Z,65.11
2022-10-14T04:31:53.519Z,65.11
2022-10-14T04:34:24.184Z,64.73
2022-10-14T04:36:54.581Z,64.78
2022-10-14T04:39:25.038Z,65.29
2022-10-14T04:41:56.539Z,65.38
2022-10-14T04:44:27.774Z,65.87
2022-10-14T04:46:58.260Z,65.59
2022-10-14T04:49:28.771Z,65.64
2022-10-14T04:51:59.283Z,64.69
2022-10-14T04:54:29.923Z,64.51
2022-10-14T04:57:00.626Z,64.70
2022-10-14T04:59:31.414Z,64.17
2022-10-14T05:02:01.783Z,63.74
2022-10-14T05:04:32.741Z,64.49
2022-10-14T05:07:11.971Z,64.58
2022-10-14T05:09:51.204Z,64.58
2022-10-14T05:12:33.830Z,63.71
2022-10-14T05:15:08.152Z,63.32
2022-10-14T05:17:39.199Z,64.49
2022-10-14T05:20:09.711Z,64.49
2022-10-14T05:22:40.455Z,63.50
2022-10-14T05:25:10.699Z,62.39
2022-10-14T05:27:41.169Z,61.45
2022-10-14T05:30:12.318Z,62.84
2022-10-14T05:32:43.033Z,63.94
2022-10-14T05:35:13.986Z,63.16
2022-10-14T05:37:44.145Z,62.15
2022-10-14T05:40:14.596Z,62.27
2022-10-14T05:42:45.735Z,61.91
2022-10-14T05:45:16.410Z,61.94
2022-10-14T05:47:47.572Z,62.08
2022-10-14T05:50:18.031Z,62.53
2022-10-14T05:52:48.560Z,62.53
2022-10-14T05:55:18.923Z,59.69
2022-10-14T05:57:49.955Z,60.05
2022-10-14T06:00:24.833Z,60.57
2022-10-14T06:02:52.637Z,60.57
2022-10-14T06:05:23.085Z,59.88
2022-10-14T06:07:57.205Z,59.94
2022-10-14T06:10:28.513Z,58.57
2022-10-14T06:12:59.460Z,58.31
2022-10-14T06:15:29.916Z,58.49
2022-10-14T06:18:00.330Z,58.20
2022-10-14T06:20:31.562Z,60.03
2022-10-14T06:23:03.198Z,60.03
2022-10-14T06:25:36.560Z,58.32
2022-10-14T06:28:07.014Z,58.32
2022-10-14T06:30:37.466Z,60.69
2022-10-14T06:33:08.926Z,57.33
2022-10-14T06:35:39.763Z,58.57
2022-10-14T06:38:10.741Z,56.15
2022-10-14T06:40:41.883Z,57.41
2022-10-14T06:43:12.395Z,56.67
2022-10-14T06:45:44.388Z,55.46
2022-10-14T06:48:15.682Z,55.86
2022-10-14T06:50:46.077Z,54.56
2022-10-14T06:53:19.509Z,54.56
2022-10-14T06:56:04.218Z,54.52
2022-10-14T06:58:38.754Z,54.67
2022-10-14T07:01:12.869Z,54.16
2022-10-14T07:03:43.260Z,54.03
2022-10-14T07:06:13.658Z,54.03
2022-10-14T07:08:44.265Z,56.11
2022-10-14T07:11:15.465Z,53.05
2022-10-14T07:13:46.732Z,54.92
2022-10-14T07:16:17.099Z,55.21
2022-10-14T07:18:47.612Z,54.35
2022-10-14T07:21:20.219Z,52.14
2022-10-14T07:23:50.279Z,53.11
2022-10-14T07:26:20.557Z,52.86
2022-10-14T07:28:51.025Z,54.09
2022-10-14T07:31:21.465Z,54.25
2022-10-14T07:33:52.733Z,51.35
2022-10-14T07:36:24.043Z,50.70
2022-10-14T07:38:54.300Z,49.65
2022-10-14T07:41:25.907Z,49.17
2022-10-14T07:43:59.732Z,49.17
2022-10-14T07:46:30.434Z,51.01
2022-10-14T07:49:07.404Z,50.15
2022-10-14T07:51:38.575Z,50.15
2022-10-14T07:54:14.812Z,49.92
2022-10-14T07:56:46.096Z,47.74
2022-10-14T07:59:21.209Z,47.67
2022-10-14T08:01:53.478Z,47.67
2022-10-14T08:04:24.517Z,46.61
2022-10-14T08:06:55.162Z,45.77
2022-10-14T08:11:55.860Z,45.83
2022-10-14T08:14:27.229Z,43.00
2022-10-14T08:16:57.633Z,42.24
2022-10-14T08:19:28.270Z,41.00
2022-10-14T08:21:58.892Z,40.41
2022-10-14T08:24:29.189Z,42.24
2022-10-14T08:26:59.729Z,40.19
2022-10-14T08:29:30.231Z,42.42
2022-10-14T08:32:00.581Z,41.80
2022-10-14T08:34:30.837Z,42.45
2022-10-14T08:37:02.599Z,38.88
2022-10-14T08:39:33.818Z,38.88
2022-10-14T08:42:13.060Z,40.03
2022-10-14T08:44:52.056Z,38.61
2022-10-14T08:47:27.991Z,38.61
2022-10-14T08:50:04.877Z,37.63
2022-10-14T08:52:44.313Z,38.08
2022-10-14T08:55:38.415Z,32.74
2022-10-14T08:58:12.379Z,32.74
2022-10-14T09:00:46.324Z,34.85
2022-10-14T09:03:22.485Z,37.74
2022-10-14T09:05:59.744Z,35.12
2022-10-14T09:08:38.856Z,33.33
2022-10-14T09:11:11.950Z,34.36
2022-10-14T09:13:45.901Z,32.26
2022-10-14T09:16:28.825Z,35.91
2022-10-14T09:19:02.121Z,35.07
2022-10-14T09:21:52.963Z,33.10
2022-10-14T09:24:24.958Z,33.10
2022-10-14T09:27:07.449Z,29.63
2022-10-14T09:29:56.148Z,29.63
2022-10-14T09:32:37.963Z,28.84
2022-10-14T09:35:28.451Z,30.24
2022-10-14T09:38:00.359Z,30.24
2022-10-14T09:40:39.025Z,30.05
2022-10-14T09:43:19.854Z,30.13
2022-10-14T09:46:08.809Z,30.13
2022-10-14T09:48:45.636Z,30.83
2022-10-14T09:51:28.305Z,29.84
2022-10-14T09:54:03.312Z,30.14
2022-10-14T09:56:42.231Z,30.14
2022-10-14T09:59:23.048Z,28.57
2022-10-14T10:01:58.118Z,30.26
2022-10-14T10:04:34.388Z,32.07
2022-10-14T10:07:07.581Z,32.07
2022-10-14T10:09:38.091Z,29.84
2022-10-14T10:12:35.515Z,30.27
2022-10-14T10:15:08.368Z,30.27
2022-10-14T10:17:40.906Z,30.71
2022-10-14T10:20:24.311Z,30.80
2022-10-14T10:22:58.610Z,30.80
2022-10-14T10:25:29.152Z,30.93
2022-10-14T10:28:00.191Z,30.93
2022-10-14T10:30:39.345Z,32.30
2022-10-14T10:33:20.975Z,30.18
2022-10-14T10:36:12.408Z,30.33
2022-10-14T10:38:54.863Z,30.33
2022-10-14T10:41:58.681Z,31.92
2022-10-14T10:44:50.669Z,30.79
2022-10-14T10:47:35.805Z,30.75
2022-10-14T10:50:35.016Z,32.77
2022-10-14T10:53:26.251Z,30.58
2022-10-14T10:56:11.650Z,30.58
2022-10-14T10:59:11.011Z,32.25
2022-10-14T11:02:07.252Z,31.20
2022-10-14T11:04:52.652Z,31.20
2022-10-14T11:07:43.042Z,30.44
2022-10-14T11:10:28.567Z,30.21
2022-10-14T11:13:10.466Z,30.02
2022-10-14T11:16:17.608Z,30.23
2022-10-14T11:19:13.894Z,30.95
2022-10-14T11:22:03.262Z,30.56
2022-10-14T11:24:36.637Z,29.76
2022-10-14T11:27:27.247Z,29.76
2022-10-14T11:30:06.830Z,30.75
2022-10-14T11:33:15.096Z,30.63
2022-10-14T11:35:57.308Z,31.16
2022-10-14T11:38:46.429Z,31.16
2022-10-14T11:41:44.252Z,33.00
2022-10-14T11:44:20.451Z,33.00
2022-10-14T11:46:53.916Z,30.77
2022-10-14T11:49:48.467Z,32.91
2022-10-14T11:52:30.614Z,32.91
2022-10-14T11:55:09.728Z,31.31
2022-10-14T11:57:51.402Z,30.48
2022-10-14T12:00:24.649Z,30.47
2022-10-14T12:03:14.656Z,29.12
2022-10-14T12:05:50.949Z,30.72
2022-10-14T12:08:24.340Z,29.44
2022-10-14T12:11:13.549Z,28.64
2022-10-14T12:13:47.226Z,26.03
2022-10-14T12:16:20.150Z,26.03
2022-10-14T12:18:58.492Z,26.89
2022-10-14T12:21:53.854Z,26.90
2022-10-14T12:24:27.357Z,26.90
2022-10-14T12:27:00.886Z,29.87
2022-10-14T12:29:34.230Z,29.47
2022-10-14T12:32:07.579Z,30.87
2022-10-14T12:34:41.477Z,30.08
2022-10-14T12:37:33.534Z,30.95
2022-10-14T12:40:07.856Z,32.21
2022-10-14T12:42:44.484Z,32.21
2022-10-14T12:45:18.012Z,31.74
2022-10-14T12:47:50.359Z,33.98
2022-10-14T12:50:32.749Z,35.18
2022-10-14T12:53:06.631Z,35.06
2022-10-14T12:55:40.414Z,36.09
2022-10-14T12:58:18.944Z,36.90
2022-10-14T13:00:54.994Z,34.32
2022-10-14T13:03:28.681Z,34.32
2022-10-14T13:06:29.073Z,32.63
2022-10-14T13:09:18.133Z,32.63
2022-10-14T13:11:58.442Z,33.92
2022-10-14T13:14:31.870Z,34.44
2022-10-14T13:17:12.069Z,35.47
2022-10-14T13:19:45.286Z,35.47
2022-10-14T13:22:39.645Z,34.20
2022-10-14T13:25:23.207Z,33.00
2022-10-14T13:28:14.997Z,35.03
2022-10-14T13:30:54.337Z,36.38
2022-10-14T13:33:33.803Z,38.24
2022-10-14T13:36:06.972Z,36.45
2022-10-14T13:38:40.898Z,35.47
2022-10-14T13:41:31.853Z,35.79
2022-10-14T13:44:07.097Z,35.32
2022-10-14T13:46:43.483Z,36.62
2022-10-14T13:49:22.686Z,34.49
2022-10-14T13:51:58.760Z,34.19
2022-10-14T13:54:30.452Z,37.19
2022-10-14T13:57:42.778Z,36.73
2022-10-14T14:00:09.065Z,34.80
2022-10-14T14:02:23.756Z,36.40
2022-10-14T14:04:57.405Z,36.40
2022-10-14T14:10:08.478Z,37.48
2022-10-14T14:12:42.022Z,37.48
2022-10-14T14:15:18.090Z,38.09
2022-10-14T14:17:48.405Z,38.61
2022-10-14T14:20:22.297Z,37.85
2022-10-14T14:22:53.301Z,38.58
2022-10-14T14:25:38.163Z,38.07
2022-10-14T14:28:04.855Z,38.07
2022-10-14T14:30:37.712Z,37.97
2022-10-14T14:33:13.599Z,40.18
2022-10-14T14:35:59.031Z,39.24
2022-10-14T14:38:32.058Z,39.24
2022-10-14T14:41:23.556Z,39.19
2022-10-14T14:44:24.033Z,37.88
2022-10-14T14:46:34.693Z,39.21
2022-10-14T14:49:07.334Z,39.21
2022-10-14T14:51:40.818Z,40.51
2022-10-14T14:54:19.430Z,40.38
2022-10-14T14:56:58.875Z,39.99
2022-10-14T14:59:41.317Z,40.24
2022-10-14T15:02:18.917Z,40.24
2022-10-14T15:05:01.070Z,38.38
2022-10-14T15:07:32.529Z,38.38
2022-10-14T15:10:06.180Z,41.40
2022-10-14T15:12:42.123Z,40.31
2022-10-14T15:15:27.917Z,42.35
2022-10-14T15:18:22.448Z,42.35
2022-10-14T15:20:55.064Z,41.70
2022-10-14T15:23:44.378Z,40.80
2022-10-14T15:26:29.740Z,42.75
2022-10-14T15:32:04.124Z,45.39
2022-10-14T15:34:35.110Z,44.81
2022-10-14T15:37:05.936Z,47.35
2022-10-14T15:39:36.662Z,47.92
2022-10-14T15:42:10.046Z,46.19
2022-10-14T15:44:41.216Z,47.26
2022-10-14T15:47:13.496Z,47.26
2022-10-14T15:49:45.195Z,50.44
2022-10-14T15:52:22.943Z,47.31
2022-10-14T15:54:51.810Z,49.42
2022-10-14T15:57:23.041Z,49.42
2022-10-14T15:59:54.507Z,51.07
2022-10-14T16:02:28.106Z,50.06
2022-10-14T16:07:30.436Z,49.90
2022-10-14T16:10:00.794Z,48.32
2022-10-14T16:12:32.437Z,48.56
2022-10-14T16:17:34.705Z,49.79
2022-10-14T16:20:06.751Z,48.50
2022-10-14T16:22:37.050Z,48.44
2022-10-14T16:25:09.129Z,48.44
2022-10-14T16:27:39.516Z,48.34
2022-10-14T16:30:10.967Z,47.36
2022-10-14T16:32:41.790Z,46.69
2022-10-14T16:35:12.419Z,46.34
2022-10-14T16:37:42.837Z,46.02
2022-10-14T16:40:13.598Z,45.46
2022-10-14T16:42:44.033Z,44.58
2022-10-14T16:45:14.841Z,46.65
2022-10-14T16:47:45.115Z,46.65
2022-10-14T16:50:16.375Z,47.16
2022-10-14T16:52:47.397Z,47.50
2022-10-14T16:55:18.642Z,47.50
2022-10-14T16:57:49.700Z,47.03
2022-10-14T17:00:20.378Z,45.78
2022-10-14T17:02:51.712Z,46.63
2022-10-14T17:05:22.474Z,46.53
2022-10-14T17:07:53.431Z,46.76
2022-10-14T17:10:24.369Z,46.76
2022-10-14T17:12:55.311Z,47.45
2022-10-14T17:15:26.306Z,47.70
2022-10-14T17:17:57.963Z,47.54
2022-10-14T17:20:31.372Z,49.33
2022-10-14T17:23:06.528Z,49.71
2022-10-14T17:25:34.990Z,50.05
2022-10-14T17:28:05.445Z,48.76
2022-10-14T17:30:35.820Z,48.62
2022-10-14T17:33:06.548Z,49.12
2022-10-14T17:35:36.901Z,49.12
2022-10-14T17:38:07.418Z,49.22
2022-10-14T17:40:37.958Z,49.22
2022-10-14T17:43:08.815Z,47.90
2022-10-14T17:45:39.638Z,49.29
2022-10-14T17:48:10.008Z,49.29
2022-10-14T17:50:40.903Z,47.34
2022-10-14T17:53:11.419Z,47.83
2022-10-14T17:55:42.414Z,47.83
2022-10-14T17:58:12.858Z,48.52
2022-10-14T18:00:43.655Z,49.41
2022-10-14T18:03:14.945Z,49.24
2022-10-14T18:05:48.781Z,49.24
2022-10-14T18:08:18.513Z,48.99
2022-10-14T18:10:52.078Z,48.99
2022-10-14T18:13:22.442Z,50.62
2022-10-14T18:15:53.471Z,51.38
2022-10-14T18:18:31.559Z,50.84
2022-10-14T18:21:04.297Z,52.47
2022-10-14T18:23:37.500Z,53.21
2022-10-14T18:26:20.748Z,52.03
2022-10-14T18:29:00.563Z,50.64
2022-10-14T18:31:47.287Z,50.64
2022-10-14T18:34:50.285Z,53.04
2022-10-14T18:38:00.454Z,52.12
2022-10-14T18:43:58.140Z,53.13
2022-10-14T18:46:38.794Z,53.05
2022-10-14T18:49:19.832Z,52.84
2022-10-14T18:52:34.279Z,52.27
2022-10-14T18:58:48.863Z,56.31
2022-10-14T19:01:21.023Z,54.83
2022-10-14T19:04:04.996Z,55.08
2022-10-14T19:06:40.792Z,55.08
2022-10-14T19:09:13.182Z,53.85
2022-10-14T19:11:53.968Z,54.69
2022-10-14T19:14:27.065Z,54.21
2022-10-14T19:17:08.798Z,53.42
2022-10-14T19:19:41.690Z,53.88
2022-10-14T19:22:12.571Z,54.60
2022-10-14T19:24:44.246Z,54.11
2022-10-14T19:27:23.583Z,50.79
2022-10-14T19:29:55.017Z,54.01
2022-10-14T19:32:31.586Z,55.08
2022-10-14T19:35:14.499Z,55.08
2022-10-14T19:37:47.315Z,53.30
2022-10-14T19:40:23.643Z,52.67
2022-10-14T19:42:58.829Z,53.51
2022-10-14T19:45:33.697Z,53.51
2022-10-14T19:48:07.835Z,53.64
2022-10-14T19:51:07.170Z,53.64
2022-10-14T19:53:45.882Z,54.90
2022-10-14T19:56:36.341Z,54.90
2022-10-14T19:59:19.233Z,52.85
2022-10-14T20:01:50.029Z,52.85
2022-10-14T20:04:22.752Z,53.09
2022-10-14T20:06:52.537Z,53.09
2022-10-14T20:09:22.785Z,53.43
2022-10-14T20:11:53.871Z,55.45
2022-10-14T20:14:25.562Z,53.79
2022-10-14T20:16:57.641Z,54.21
2022-10-14T20:19:28.479Z,54.21
2022-10-14T20:21:58.714Z,52.10
2022-10-14T20:24:32.208Z,51.48
2022-10-14T20:27:04.548Z,51.89
2022-10-14T20:29:36.608Z,51.07
2022-10-14T20:32:06.880Z,50.14
2022-10-14T20:34:37.842Z,49.40
2022-10-14T20:37:08.555Z,50.17
2022-10-14T20:39:38.978Z,47.66
2022-10-14T20:42:09.194Z,51.40
2022-10-14T20:44:41.029Z,51.90
2022-10-14T20:47:11.604Z,52.59
2022-10-14T20:49:43.109Z,52.59
2022-10-14T20:52:15.188Z,54.23
2022-10-14T20:54:45.463Z,53.11
2022-10-14T20:57:16.111Z,53.00
2022-10-14T20:59:46.565Z,52.56
2022-10-14T21:02:19.604Z,52.56
2022-10-14T21:04:51.765Z,52.27
2022-10-14T21:07:24.953Z,51.75
2022-10-14T21:09:56.288Z,50.88
2022-10-14T21:12:27.430Z,51.23
2022-10-14T21:14:59.087Z,52.41
2022-10-14T21:17:29.297Z,52.79
2022-10-14T21:19:59.679Z,51.91
2022-10-14T21:22:30.825Z,50.84
2022-10-14T21:25:05.945Z,50.96
2022-10-14T21:27:36.554Z,51.13
2022-10-14T21:30:07.818Z,51.71
2022-10-14T21:32:38.792Z,51.88
2022-10-14T21:35:10.522Z,52.18
2022-10-14T21:37:41.389Z,50.49
2022-10-14T21:40:11.908Z,51.50
2022-10-14T21:42:43.407Z,51.50
2022-10-14T21:45:13.754Z,52.06
2022-10-14T21:47:44.093Z,52.51
2022-10-14T21:50:14.713Z,53.03
2022-10-14T21:52:45.206Z,53.67
2022-10-14T21:55:16.031Z,54.19
2022-10-14T21:57:47.044Z,54.19
2022-10-14T22:00:18.121Z,53.65
2022-10-14T22:02:54.557Z,53.40
2022-10-14T22:05:24.789Z,53.40
2022-10-14T22:07:55.072Z,54.02
2022-10-14T22:10:25.962Z,52.86
2022-10-14T22:12:57.625Z,52.73
2022-10-14T22:15:28.074Z,52.45
2022-10-14T22:17:58.499Z,52.90
2022-10-14T22:20:28.763Z,52.79
2022-10-14T22:22:58.930Z,51.95
2022-10-14T22:25:29.263Z,51.24
2022-10-14T22:27:59.486Z,51.24
2022-10-14T22:30:30.234Z,52.05
2022-10-14T22:33:00.489Z,53.15
2022-10-14T22:35:30.706Z,53.15
2022-10-14T22:38:01.028Z,53.66
2022-10-14T22:40:33.019Z,54.42
2022-10-14T22:43:03.580Z,54.24
2022-10-14T22:45:33.878Z,53.98
2022-10-14T22:48:04.156Z,54.20
2022-10-14T22:50:36.084Z,54.65
2022-10-14T22:53:06.415Z,54.65
2022-10-14T22:55:37.277Z,53.74
2022-10-14T22:58:07.475Z,55.08
2022-10-14T23:03:09.281Z,54.08
2022-10-14T23:05:40.604Z,53.93
2022-10-14T23:08:10.932Z,53.93
2022-10-14T23:10:45.274Z,54.41
2022-10-14T23:13:15.942Z,54.79
2022-10-14T23:15:55.795Z,54.47
2022-10-14T23:18:27.930Z,54.47
2022-10-14T23:20:58.180Z,53.79
2022-10-14T23:23:29.118Z,53.79
2022-10-14T23:25:59.320Z,54.82
2022-10-14T23:28:29.565Z,54.44
2022-10-14T23:30:59.908Z,55.02
2022-10-14T23:33:32.048Z,53.71
2022-10-14T23:36:07.601Z,53.71
2022-10-14T23:38:39.072Z,53.50
2022-10-14T23:41:11.911Z,52.62
2022-10-14T23:43:43.407Z,53.47
2022-10-14T23:46:14.231Z,52.63
2022-10-14T23:48:51.418Z,52.63
2022-10-14T23:51:17.040Z,52.26
2022-10-14T23:53:47.239Z,52.18
2022-10-14T23:56:17.608Z,52.18
2022-10-14T23:58:48.782Z,52.78
